sensor_id;sensor_type;location;lat;lon;timestamp;temperature;humidity
68439;SHT31;55421;51.600;5.718;2023-01-16T00:01:51;6.08;80.98
68439;SHT31;55421;51.600;5.718;2023-01-16T00:04:19;6.08;81.11
68439;SHT31;55421;51.600;5.718;2023-01-16T00:06:45;6.10;81.26
68439;SHT31;55421;51.600;5.718;2023-01-16T00:09:12;6.11;81.30
68439;SHT31;55421;51.600;5.718;2023-01-16T00:11:39;6.10;81.30
68439;SHT31;55421;51.600;5.718;2023-01-16T00:14:05;6.09;81.32
68439;SHT31;55421;51.600;5.718;2023-01-16T00:16:32;6.07;81.34
68439;SHT31;55421;51.600;5.718;2023-01-16T00:18:59;6.04;81.37
68439;SHT31;55421;51.600;5.718;2023-01-16T00:21:25;6.03;81.34
68439;SHT31;55421;51.600;5.718;2023-01-16T00:23:55;6.05;81.32
68439;SHT31;55421;51.600;5.718;2023-01-16T00:26:25;6.06;81.28
68439;SHT31;55421;51.600;5.718;2023-01-16T00:28:53;6.07;81.14
68439;SHT31;55421;51.600;5.718;2023-01-16T00:31:20;6.05;81.11
68439;SHT31;55421;51.600;5.718;2023-01-16T00:33:49;6.04;81.10
68439;SHT31;55421;51.600;5.718;2023-01-16T00:36:16;6.00;81.02
68439;SHT31;55421;51.600;5.718;2023-01-16T00:38:42;5.98;81.00
68439;SHT31;55421;51.600;5.718;2023-01-16T00:41:09;5.99;81.00
68439;SHT31;55421;51.600;5.718;2023-01-16T00:43:35;5.99;81.00
68439;SHT31;55421;51.600;5.718;2023-01-16T00:46:02;5.98;81.00
68439;SHT31;55421;51.600;5.718;2023-01-16T00:48:29;5.96;81.00
68439;SHT31;55421;51.600;5.718;2023-01-16T00:50:55;5.94;81.10
68439;SHT31;55421;51.600;5.718;2023-01-16T00:53:21;5.89;81.09
68439;SHT31;55421;51.600;5.718;2023-01-16T00:55:50;5.85;81.10
68439;SHT31;55421;51.600;5.718;2023-01-16T00:58:18;5.81;81.18
68439;SHT31;55421;51.600;5.718;2023-01-16T01:00:45;5.79;81.14
68439;SHT31;55421;51.600;5.718;2023-01-16T01:03:11;5.78;81.16
68439;SHT31;55421;51.600;5.718;2023-01-16T01:05:38;5.76;81.21
68439;SHT31;55421;51.600;5.718;2023-01-16T01:08:05;5.73;81.26
68439;SHT31;55421;51.600;5.718;2023-01-16T01:10:32;5.70;81.31
68439;SHT31;55421;51.600;5.718;2023-01-16T01:13:01;5.64;81.35
68439;SHT31;55421;51.600;5.718;2023-01-16T01:15:28;5.59;81.44
68439;SHT31;55421;51.600;5.718;2023-01-16T01:17:54;5.54;81.50
68439;SHT31;55421;51.600;5.718;2023-01-16T01:20:21;5.51;81.57
68439;SHT31;55421;51.600;5.718;2023-01-16T01:22:47;5.50;81.60
68439;SHT31;55421;51.600;5.718;2023-01-16T01:25:13;5.49;81.63
68439;SHT31;55421;51.600;5.718;2023-01-16T01:27:40;5.51;81.70
68439;SHT31;55421;51.600;5.718;2023-01-16T01:30:07;5.50;81.70
68439;SHT31;55421;51.600;5.718;2023-01-16T01:32:34;5.47;81.70
68439;SHT31;55421;51.600;5.718;2023-01-16T01:35:05;5.43;81.74
68439;SHT31;55421;51.600;5.718;2023-01-16T01:37:33;5.40;81.80
68439;SHT31;55421;51.600;5.718;2023-01-16T01:40:01;5.35;81.80
68439;SHT31;55421;51.600;5.718;2023-01-16T01:42:35;5.30;81.81
68439;SHT31;55421;51.600;5.718;2023-01-16T01:47:54;5.25;81.90
68439;SHT31;55421;51.600;5.718;2023-01-16T01:50:51;5.24;81.94
68439;SHT31;55421;51.600;5.718;2023-01-16T01:53:30;5.25;82.00
68439;SHT31;55421;51.600;5.718;2023-01-16T01:56:02;5.24;81.97
68439;SHT31;55421;51.600;5.718;2023-01-16T01:58:53;5.22;81.99
68439;SHT31;55421;51.600;5.718;2023-01-16T02:01:26;5.20;82.00
68439;SHT31;55421;51.600;5.718;2023-01-16T02:04:02;5.17;82.00
68439;SHT31;55421;51.600;5.718;2023-01-16T02:06:42;5.14;81.96
68439;SHT31;55421;51.600;5.718;2023-01-16T02:09:14;5.13;81.90
68439;SHT31;55421;51.600;5.718;2023-01-16T02:11:53;5.14;81.93
68439;SHT31;55421;51.600;5.718;2023-01-16T02:14:23;5.15;81.90
68439;SHT31;55421;51.600;5.718;2023-01-16T02:17:08;5.15;81.88
68439;SHT31;55421;51.600;5.718;2023-01-16T02:20:14;5.13;81.83
68439;SHT31;55421;51.600;5.718;2023-01-16T02:37:49;4.90;81.80
68439;SHT31;55421;51.600;5.718;2023-01-16T02:43:24;4.89;81.90
68439;SHT31;55421;51.600;5.718;2023-01-16T02:46:06;4.86;81.89
68439;SHT31;55421;51.600;5.718;2023-01-16T02:51:51;4.75;81.80
68439;SHT31;55421;51.600;5.718;2023-01-16T02:54:35;4.72;81.90
68439;SHT31;55421;51.600;5.718;2023-01-16T02:57:15;4.74;81.99
68439;SHT31;55421;51.600;5.718;2023-01-16T02:59:44;4.79;82.08
68439;SHT31;55421;51.600;5.718;2023-01-16T03:02:15;4.80;81.97
68439;SHT31;55421;51.600;5.718;2023-01-16T03:04:43;4.79;81.96
68439;SHT31;55421;51.600;5.718;2023-01-16T03:07:21;4.76;81.92
68439;SHT31;55421;51.600;5.718;2023-01-16T03:13:18;4.67;81.92
68439;SHT31;55421;51.600;5.718;2023-01-16T03:16:09;4.62;81.97
68439;SHT31;55421;51.600;5.718;2023-01-16T03:36:13;4.63;82.20
68439;SHT31;55421;51.600;5.718;2023-01-16T03:38:50;4.64;82.20
68439;SHT31;55421;51.600;5.718;2023-01-16T03:41:21;4.65;82.20
68439;SHT31;55421;51.600;5.718;2023-01-16T03:43:51;4.66;82.20
68439;SHT31;55421;51.600;5.718;2023-01-16T03:46:29;4.68;82.27
68439;SHT31;55421;51.600;5.718;2023-01-16T03:49:11;4.67;82.32
68439;SHT31;55421;51.600;5.718;2023-01-16T03:51:45;4.66;82.40
68439;SHT31;55421;51.600;5.718;2023-01-16T03:57:22;4.64;82.50
68439;SHT31;55421;51.600;5.718;2023-01-16T03:59:55;4.67;82.55
68439;SHT31;55421;51.600;5.718;2023-01-16T04:05:27;4.76;82.68
68439;SHT31;55421;51.600;5.718;2023-01-16T04:08:05;4.76;82.64
68439;SHT31;55421;51.600;5.718;2023-01-16T04:10:42;4.74;82.69
68439;SHT31;55421;51.600;5.718;2023-01-16T04:13:14;4.74;82.76
68439;SHT31;55421;51.600;5.718;2023-01-16T04:15:48;4.72;82.79
68439;SHT31;55421;51.600;5.718;2023-01-16T04:18:22;4.74;82.80
68439;SHT31;55421;51.600;5.718;2023-01-16T04:20:54;4.78;82.80
68439;SHT31;55421;51.600;5.718;2023-01-16T04:23:21;4.81;82.84
68439;SHT31;55421;51.600;5.718;2023-01-16T04:25:47;4.84;82.90
68439;SHT31;55421;51.600;5.718;2023-01-16T04:28:14;4.83;82.90
68439;SHT31;55421;51.600;5.718;2023-01-16T04:30:40;4.82;82.95
68439;SHT31;55421;51.600;5.718;2023-01-16T04:33:07;4.84;83.00
68439;SHT31;55421;51.600;5.718;2023-01-16T04:35:34;4.87;82.99
68439;SHT31;55421;51.600;5.718;2023-01-16T04:38:00;4.91;83.00
68439;SHT31;55421;51.600;5.718;2023-01-16T04:40:27;4.92;83.10
68439;SHT31;55421;51.600;5.718;2023-01-16T04:42:53;4.92;83.08
68439;SHT31;55421;51.600;5.718;2023-01-16T04:45:22;4.91;83.02
68439;SHT31;55421;51.600;5.718;2023-01-16T04:47:49;4.90;83.05
68439;SHT31;55421;51.600;5.718;2023-01-16T04:50:18;4.91;83.03
68439;SHT31;55421;51.600;5.718;2023-01-16T04:52:45;4.93;83.03
68439;SHT31;55421;51.600;5.718;2023-01-16T04:55:12;4.93;83.09
68439;SHT31;55421;51.600;5.718;2023-01-16T04:57:39;4.95;83.13
68439;SHT31;55421;51.600;5.718;2023-01-16T05:00:07;4.94;83.10
68439;SHT31;55421;51.600;5.718;2023-01-16T05:02:36;4.91;83.10
68439;SHT31;55421;51.600;5.718;2023-01-16T05:05:03;4.88;83.12
68439;SHT31;55421;51.600;5.718;2023-01-16T05:07:30;4.89;83.10
68439;SHT31;55421;51.600;5.718;2023-01-16T05:09:57;4.90;83.13
68439;SHT31;55421;51.600;5.718;2023-01-16T05:12:23;4.92;83.20
68439;SHT31;55421;51.600;5.718;2023-01-16T05:14:50;4.94;83.21
68439;SHT31;55421;51.600;5.718;2023-01-16T05:17:16;4.93;83.23
68439;SHT31;55421;51.600;5.718;2023-01-16T05:19:43;4.93;83.21
68439;SHT31;55421;51.600;5.718;2023-01-16T05:22:09;4.91;83.20
68439;SHT31;55421;51.600;5.718;2023-01-16T05:24:36;4.93;83.27
68439;SHT31;55421;51.600;5.718;2023-01-16T05:27:02;4.97;83.22
68439;SHT31;55421;51.600;5.718;2023-01-16T05:29:29;5.00;83.30
68439;SHT31;55421;51.600;5.718;2023-01-16T05:31:55;5.01;83.30
68439;SHT31;55421;51.600;5.718;2023-01-16T05:34:21;5.01;83.30
68439;SHT31;55421;51.600;5.718;2023-01-16T05:36:48;5.01;83.30
68439;SHT31;55421;51.600;5.718;2023-01-16T05:39:14;5.04;83.30
68439;SHT31;55421;51.600;5.718;2023-01-16T05:41:41;5.08;83.28
68439;SHT31;55421;51.600;5.718;2023-01-16T05:44:07;5.11;83.25
68439;SHT31;55421;51.600;5.718;2023-01-16T05:46:34;5.12;83.20
68439;SHT31;55421;51.600;5.718;2023-01-16T05:49:00;5.13;83.20
68439;SHT31;55421;51.600;5.718;2023-01-16T05:51:27;5.15;83.11
68439;SHT31;55421;51.600;5.718;2023-01-16T05:53:53;5.18;83.00
68439;SHT31;55421;51.600;5.718;2023-01-16T05:56:20;5.20;82.92
68439;SHT31;55421;51.600;5.718;2023-01-16T05:58:48;5.21;82.87
68439;SHT31;55421;51.600;5.718;2023-01-16T06:01:14;5.20;82.75
68439;SHT31;55421;51.600;5.718;2023-01-16T06:03:41;5.20;82.67
68439;SHT31;55421;51.600;5.718;2023-01-16T06:06:07;5.23;82.58
68439;SHT31;55421;51.600;5.718;2023-01-16T06:08:34;5.25;82.44
68439;SHT31;55421;51.600;5.718;2023-01-16T06:11:00;5.29;82.34
68439;SHT31;55421;51.600;5.718;2023-01-16T06:13:27;5.29;82.27
68439;SHT31;55421;51.600;5.718;2023-01-16T06:15:53;5.30;82.23
68439;SHT31;55421;51.600;5.718;2023-01-16T06:18:21;5.31;82.16
68439;SHT31;55421;51.600;5.718;2023-01-16T06:20:48;5.33;82.10
68439;SHT31;55421;51.600;5.718;2023-01-16T06:23:14;5.34;82.07
68439;SHT31;55421;51.600;5.718;2023-01-16T06:25:41;5.34;82.06
68439;SHT31;55421;51.600;5.718;2023-01-16T06:28:08;5.33;82.00
68439;SHT31;55421;51.600;5.718;2023-01-16T06:30:34;5.32;82.09
68439;SHT31;55421;51.600;5.718;2023-01-16T06:33:01;5.34;82.10
68439;SHT31;55421;51.600;5.718;2023-01-16T06:35:27;5.36;82.14
68439;SHT31;55421;51.600;5.718;2023-01-16T06:37:54;5.37;82.20
68439;SHT31;55421;51.600;5.718;2023-01-16T06:40:20;5.35;82.23
68439;SHT31;55421;51.600;5.718;2023-01-16T06:42:47;5.34;82.35
68439;SHT31;55421;51.600;5.718;2023-01-16T06:45:13;5.37;82.47
68439;SHT31;55421;51.600;5.718;2023-01-16T06:47:40;5.40;82.52
68439;SHT31;55421;51.600;5.718;2023-01-16T06:50:06;5.41;82.62
68439;SHT31;55421;51.600;5.718;2023-01-16T06:52:33;5.40;82.86
68439;SHT31;55421;51.600;5.718;2023-01-16T06:55:01;5.37;83.10
68439;SHT31;55421;51.600;5.718;2023-01-16T06:57:28;5.36;83.19
68439;SHT31;55421;51.600;5.718;2023-01-16T06:59:54;5.38;83.20
68439;SHT31;55421;51.600;5.718;2023-01-16T07:02:21;5.40;83.22
68439;SHT31;55421;51.600;5.718;2023-01-16T07:04:47;5.39;83.28
68439;SHT31;55421;51.600;5.718;2023-01-16T07:07:14;5.37;83.37
68439;SHT31;55421;51.600;5.718;2023-01-16T07:09:40;5.37;83.47
68439;SHT31;55421;51.600;5.718;2023-01-16T07:12:07;5.39;83.53
68439;SHT31;55421;51.600;5.718;2023-01-16T07:14:33;5.41;83.60
68439;SHT31;55421;51.600;5.718;2023-01-16T07:17:18;5.41;83.65
68439;SHT31;55421;51.600;5.718;2023-01-16T07:20:03;5.38;83.71
68439;SHT31;55421;51.600;5.718;2023-01-16T07:22:49;5.37;83.80
68439;SHT31;55421;51.600;5.718;2023-01-16T07:25:20;5.38;83.81
68439;SHT31;55421;51.600;5.718;2023-01-16T07:27:55;5.38;83.85
68439;SHT31;55421;51.600;5.718;2023-01-16T07:30:22;5.36;83.90
68439;SHT31;55421;51.600;5.718;2023-01-16T07:32:48;5.37;83.93
68439;SHT31;55421;51.600;5.718;2023-01-16T07:35:15;5.39;83.98
68439;SHT31;55421;51.600;5.718;2023-01-16T07:37:41;5.41;83.99
68439;SHT31;55421;51.600;5.718;2023-01-16T07:40:12;5.41;84.10
68439;SHT31;55421;51.600;5.718;2023-01-16T07:42:39;5.38;84.14
68439;SHT31;55421;51.600;5.718;2023-01-16T07:45:05;5.39;84.20
68439;SHT31;55421;51.600;5.718;2023-01-16T07:47:33;5.42;84.21
68439;SHT31;55421;51.600;5.718;2023-01-16T07:50:00;5.42;84.28
68439;SHT31;55421;51.600;5.718;2023-01-16T07:52:27;5.42;84.38
68439;SHT31;55421;51.600;5.718;2023-01-16T07:54:54;5.41;84.47
68439;SHT31;55421;51.600;5.718;2023-01-16T07:57:21;5.40;84.50
68439;SHT31;55421;51.600;5.718;2023-01-16T07:59:48;5.43;84.52
68439;SHT31;55421;51.600;5.718;2023-01-16T08:02:14;5.43;84.60
68439;SHT31;55421;51.600;5.718;2023-01-16T08:04:41;5.43;84.60
68439;SHT31;55421;51.600;5.718;2023-01-16T08:07:07;5.43;84.60
68439;SHT31;55421;51.600;5.718;2023-01-16T08:09:34;5.45;84.61
68439;SHT31;55421;51.600;5.718;2023-01-16T08:12:00;5.47;84.56
68439;SHT31;55421;51.600;5.718;2023-01-16T08:14:27;5.51;84.50
68439;SHT31;55421;51.600;5.718;2023-01-16T08:16:53;5.51;84.56
68439;SHT31;55421;51.600;5.718;2023-01-16T08:19:20;5.50;84.62
68439;SHT31;55421;51.600;5.718;2023-01-16T08:21:46;5.50;84.69
68439;SHT31;55421;51.600;5.718;2023-01-16T08:24:13;5.52;84.70
68439;SHT31;55421;51.600;5.718;2023-01-16T08:26:40;5.55;84.70
68439;SHT31;55421;51.600;5.718;2023-01-16T08:29:08;5.56;84.73
68439;SHT31;55421;51.600;5.718;2023-01-16T08:31:35;5.55;84.80
68439;SHT31;55421;51.600;5.718;2023-01-16T08:34:02;5.54;84.79
68439;SHT31;55421;51.600;5.718;2023-01-16T08:36:28;5.56;84.80
68439;SHT31;55421;51.600;5.718;2023-01-16T08:38:55;5.59;84.83
68439;SHT31;55421;51.600;5.718;2023-01-16T08:41:22;5.60;84.80
68439;SHT31;55421;51.600;5.718;2023-01-16T08:44:07;5.60;84.80
68439;SHT31;55421;51.600;5.718;2023-01-16T08:50:09;5.66;84.74
68439;SHT31;55421;51.600;5.718;2023-01-16T08:52:59;5.65;84.75
68439;SHT31;55421;51.600;5.718;2023-01-16T08:55:26;5.65;84.70
68439;SHT31;55421;51.600;5.718;2023-01-16T08:57:52;5.68;84.71
68439;SHT31;55421;51.600;5.718;2023-01-16T09:00:19;5.71;84.69
68439;SHT31;55421;51.600;5.718;2023-01-16T09:02:46;5.71;84.68
68439;SHT31;55421;51.600;5.718;2023-01-16T09:05:13;5.71;84.60
68439;SHT31;55421;51.600;5.718;2023-01-16T09:07:40;5.71;84.70
68439;SHT31;55421;51.600;5.718;2023-01-16T09:10:06;5.71;84.67
68439;SHT31;55421;51.600;5.718;2023-01-16T09:12:34;5.73;84.69
68439;SHT31;55421;51.600;5.718;2023-01-16T09:15:39;5.75;84.67
68439;SHT31;55421;51.600;5.718;2023-01-16T09:18:05;5.77;84.64
68439;SHT31;55421;51.600;5.718;2023-01-16T09:20:32;5.78;84.61
68439;SHT31;55421;51.600;5.718;2023-01-16T09:22:59;5.77;84.60
68439;SHT31;55421;51.600;5.718;2023-01-16T09:25:28;5.76;84.61
68439;SHT31;55421;51.600;5.718;2023-01-16T09:27:57;5.76;84.60
68439;SHT31;55421;51.600;5.718;2023-01-16T09:30:25;5.77;84.54
68439;SHT31;55421;51.600;5.718;2023-01-16T09:32:53;5.79;84.50
68439;SHT31;55421;51.600;5.718;2023-01-16T09:35:20;5.80;84.49
68439;SHT31;55421;51.600;5.718;2023-01-16T09:37:46;5.80;84.50
68439;SHT31;55421;51.600;5.718;2023-01-16T09:40:17;5.79;84.50
68439;SHT31;55421;51.600;5.718;2023-01-16T09:45:56;5.78;84.50
68439;SHT31;55421;51.600;5.718;2023-01-16T09:48:28;5.80;84.45
68439;SHT31;55421;51.600;5.718;2023-01-16T09:51:02;5.82;84.40
68439;SHT31;55421;51.600;5.718;2023-01-16T09:56:32;5.81;84.40
68439;SHT31;55421;51.600;5.718;2023-01-16T09:59:25;5.78;84.40
68439;SHT31;55421;51.600;5.718;2023-01-16T10:02:07;5.78;84.42
68439;SHT31;55421;51.600;5.718;2023-01-16T10:04:52;5.79;84.40
68439;SHT31;55421;51.600;5.718;2023-01-16T10:19:16;5.90;84.33
68439;SHT31;55421;51.600;5.718;2023-01-16T10:22:20;5.91;84.30
68439;SHT31;55421;51.600;5.718;2023-01-16T10:25:18;5.97;84.27
68439;SHT31;55421;51.600;5.718;2023-01-16T10:30:54;6.04;84.20
68439;SHT31;55421;51.600;5.718;2023-01-16T10:33:33;6.06;84.20
68439;SHT31;55421;51.600;5.718;2023-01-16T10:36:10;6.06;84.11
68439;SHT31;55421;51.600;5.718;2023-01-16T10:38:42;6.08;84.04
68439;SHT31;55421;51.600;5.718;2023-01-16T10:41:18;6.14;84.00
68439;SHT31;55421;51.600;5.718;2023-01-16T10:44:33;6.25;83.96
68439;SHT31;55421;51.600;5.718;2023-01-16T10:47:27;6.32;83.84
68439;SHT31;55421;51.600;5.718;2023-01-16T10:50:18;6.36;83.90
68439;SHT31;55421;51.600;5.718;2023-01-16T10:52:48;6.39;83.84
68439;SHT31;55421;51.600;5.718;2023-01-16T10:55:15;6.39;83.76
68439;SHT31;55421;51.600;5.718;2023-01-16T10:57:49;6.41;83.70
68439;SHT31;55421;51.600;5.718;2023-01-16T11:00:26;6.48;83.62
68439;SHT31;55421;51.600;5.718;2023-01-16T11:03:04;6.54;83.61
68439;SHT31;55421;51.600;5.718;2023-01-16T11:05:43;6.59;83.56
68439;SHT31;55421;51.600;5.718;2023-01-16T11:08:10;6.60;83.47
68439;SHT31;55421;51.600;5.718;2023-01-16T11:10:41;6.59;83.40
68439;SHT31;55421;51.600;5.718;2023-01-16T11:13:19;6.57;83.37
68439;SHT31;55421;51.600;5.718;2023-01-16T11:16:21;6.55;83.19
68439;SHT31;55421;51.600;5.718;2023-01-16T11:19:16;6.53;83.09
68439;SHT31;55421;51.600;5.718;2023-01-16T11:22:14;6.50;83.09
68439;SHT31;55421;51.600;5.718;2023-01-16T11:24:57;6.45;83.16
68439;SHT31;55421;51.600;5.718;2023-01-16T11:27:30;6.44;83.19
68439;SHT31;55421;51.600;5.718;2023-01-16T11:30:02;6.43;83.18
68439;SHT31;55421;51.600;5.718;2023-01-16T11:32:40;6.44;83.18
68439;SHT31;55421;51.600;5.718;2023-01-16T11:35:14;6.48;83.16
68439;SHT31;55421;51.600;5.718;2023-01-16T11:37:45;6.53;83.10
68439;SHT31;55421;51.600;5.718;2023-01-16T11:40:25;6.55;83.10
68439;SHT31;55421;51.600;5.718;2023-01-16T11:42:57;6.56;83.06
68439;SHT31;55421;51.600;5.718;2023-01-16T11:45:47;6.56;83.04
68439;SHT31;55421;51.600;5.718;2023-01-16T11:48:41;6.60;83.01
68439;SHT31;55421;51.600;5.718;2023-01-16T11:51:16;6.64;82.89
68439;SHT31;55421;51.600;5.718;2023-01-16T11:53:48;6.70;82.88
68439;SHT31;55421;51.600;5.718;2023-01-16T12:08:08;6.84;82.43
68439;SHT31;55421;51.600;5.718;2023-01-16T12:10:46;6.87;82.34
68439;SHT31;55421;51.600;5.718;2023-01-16T12:16:37;6.85;82.11
68439;SHT31;55421;51.600;5.718;2023-01-16T12:28:35;6.80;82.06
68439;SHT31;55421;51.600;5.718;2023-01-16T12:40:27;6.77;82.05
68439;SHT31;55421;51.600;5.718;2023-01-16T12:46:08;6.77;82.09
68439;SHT31;55421;51.600;5.718;2023-01-16T12:49:00;6.75;82.01
68439;SHT31;55421;51.600;5.718;2023-01-16T12:54:47;6.83;82.07
68439;SHT31;55421;51.600;5.718;2023-01-16T12:57:46;6.86;82.05
68439;SHT31;55421;51.600;5.718;2023-01-16T13:00:23;6.87;82.10
68439;SHT31;55421;51.600;5.718;2023-01-16T13:02:58;6.86;82.06
68439;SHT31;55421;51.600;5.718;2023-01-16T13:05:45;6.87;81.89
68439;SHT31;55421;51.600;5.718;2023-01-16T13:08:20;6.89;81.81
68439;SHT31;55421;51.600;5.718;2023-01-16T13:10:55;6.94;81.69
68439;SHT31;55421;51.600;5.718;2023-01-16T13:13:56;6.96;81.60
68439;SHT31;55421;51.600;5.718;2023-01-16T13:16:33;6.99;81.61
68439;SHT31;55421;51.600;5.718;2023-01-16T13:19:13;6.97;81.46
68439;SHT31;55421;51.600;5.718;2023-01-16T13:24:33;7.03;81.13
68439;SHT31;55421;51.600;5.718;2023-01-16T13:27:11;7.10;81.20
68439;SHT31;55421;51.600;5.718;2023-01-16T13:29:59;7.13;81.40
68439;SHT31;55421;51.600;5.718;2023-01-16T13:35:29;7.09;81.76
68439;SHT31;55421;51.600;5.718;2023-01-16T13:41:13;7.07;81.94
68439;SHT31;55421;51.600;5.718;2023-01-16T13:47:12;7.11;82.04
68439;SHT31;55421;51.600;5.718;2023-01-16T13:49:49;7.07;82.15
68439;SHT31;55421;51.600;5.718;2023-01-16T13:52:20;7.03;82.24
68439;SHT31;55421;51.600;5.718;2023-01-16T13:54:56;6.99;82.34
68439;SHT31;55421;51.600;5.718;2023-01-16T13:57:26;6.97;82.40
68439;SHT31;55421;51.600;5.718;2023-01-16T13:59:54;6.96;82.48
68439;SHT31;55421;51.600;5.718;2023-01-16T14:10:40;6.88;82.92
68439;SHT31;55421;51.600;5.718;2023-01-16T14:13:21;6.89;82.98
68439;SHT31;55421;51.600;5.718;2023-01-16T14:16:01;6.90;83.03
68439;SHT31;55421;51.600;5.718;2023-01-16T14:21:43;6.88;83.21
68439;SHT31;55421;51.600;5.718;2023-01-16T14:24:41;6.87;83.24
68439;SHT31;55421;51.600;5.718;2023-01-16T14:27:23;6.88;83.24
68439;SHT31;55421;51.600;5.718;2023-01-16T14:30:02;6.92;83.20
68439;SHT31;55421;51.600;5.718;2023-01-16T14:32:34;6.95;83.20
68439;SHT31;55421;51.600;5.718;2023-01-16T14:35:19;6.97;83.12
68439;SHT31;55421;51.600;5.718;2023-01-16T14:38:00;6.97;83.12
68439;SHT31;55421;51.600;5.718;2023-01-16T14:40:35;6.98;83.10
68439;SHT31;55421;51.600;5.718;2023-01-16T14:43:27;6.97;83.10
68439;SHT31;55421;51.600;5.718;2023-01-16T14:52:46;7.05;83.20
68439;SHT31;55421;51.600;5.718;2023-01-16T14:58:40;7.03;83.23
68439;SHT31;55421;51.600;5.718;2023-01-16T15:01:31;7.00;83.20
68439;SHT31;55421;51.600;5.718;2023-01-16T15:04:22;6.95;83.24
68439;SHT31;55421;51.600;5.718;2023-01-16T15:06:56;6.91;83.35
68439;SHT31;55421;51.600;5.718;2023-01-16T15:09:28;6.91;83.34
68439;SHT31;55421;51.600;5.718;2023-01-16T15:11:57;6.93;83.30
68439;SHT31;55421;51.600;5.718;2023-01-16T15:14:26;6.96;83.26
68439;SHT31;55421;51.600;5.718;2023-01-16T15:17:03;6.96;83.18
68439;SHT31;55421;51.600;5.718;2023-01-16T15:20:24;6.94;83.10
68439;SHT31;55421;51.600;5.718;2023-01-16T15:23:22;6.91;83.00
68439;SHT31;55421;51.600;5.718;2023-01-16T15:25:59;6.88;83.03
68439;SHT31;55421;51.600;5.718;2023-01-16T15:31:08;6.86;82.91
68439;SHT31;55421;51.600;5.718;2023-01-16T15:33:41;6.88;82.80
68439;SHT31;55421;51.600;5.718;2023-01-16T15:36:16;6.91;82.78
68439;SHT31;55421;51.600;5.718;2023-01-16T15:38:55;6.93;82.72
68439;SHT31;55421;51.600;5.718;2023-01-16T15:41:30;6.91;82.59
68439;SHT31;55421;51.600;5.718;2023-01-16T15:44:19;6.87;82.58
68439;SHT31;55421;51.600;5.718;2023-01-16T15:50:27;6.78;82.51
68439;SHT31;55421;51.600;5.718;2023-01-16T15:53:10;6.75;82.62
68439;SHT31;55421;51.600;5.718;2023-01-16T15:55:38;6.74;82.64
68439;SHT31;55421;51.600;5.718;2023-01-16T15:58:12;6.80;82.67
68439;SHT31;55421;51.600;5.718;2023-01-16T16:00:43;6.85;82.78
68439;SHT31;55421;51.600;5.718;2023-01-16T16:03:11;6.89;82.82
68439;SHT31;55421;51.600;5.718;2023-01-16T16:05:46;6.91;82.92
68439;SHT31;55421;51.600;5.718;2023-01-16T16:08:26;6.91;83.00
68439;SHT31;55421;51.600;5.718;2023-01-16T16:10:58;6.90;83.05
68439;SHT31;55421;51.600;5.718;2023-01-16T16:13:47;6.89;83.03
68439;SHT31;55421;51.600;5.718;2023-01-16T16:16:16;6.90;83.00
68439;SHT31;55421;51.600;5.718;2023-01-16T16:19:05;6.89;83.02
68439;SHT31;55421;51.600;5.718;2023-01-16T16:21:34;6.89;83.10
68439;SHT31;55421;51.600;5.718;2023-01-16T16:24:31;6.89;83.20
68439;SHT31;55421;51.600;5.718;2023-01-16T16:27:07;6.92;83.31
68439;SHT31;55421;51.600;5.718;2023-01-16T16:29:41;6.93;83.34
68439;SHT31;55421;51.600;5.718;2023-01-16T16:32:19;6.91;83.32
68439;SHT31;55421;51.600;5.718;2023-01-16T16:34:53;6.91;83.40
68439;SHT31;55421;51.600;5.718;2023-01-16T16:37:23;6.92;83.43
68439;SHT31;55421;51.600;5.718;2023-01-16T16:40:07;6.96;83.50
68439;SHT31;55421;51.600;5.718;2023-01-16T16:45:21;7.00;83.48
68439;SHT31;55421;51.600;5.718;2023-01-16T16:51:10;6.95;83.43
68439;SHT31;55421;51.600;5.718;2023-01-16T16:53:46;6.93;83.51
68439;SHT31;55421;51.600;5.718;2023-01-16T16:56:19;6.90;83.60
68439;SHT31;55421;51.600;5.718;2023-01-16T16:58:51;6.90;83.60
68439;SHT31;55421;51.600;5.718;2023-01-16T17:01:19;6.92;83.60
68439;SHT31;55421;51.600;5.718;2023-01-16T17:03:49;6.95;83.61
68439;SHT31;55421;51.600;5.718;2023-01-16T17:06:21;6.96;83.68
68439;SHT31;55421;51.600;5.718;2023-01-16T17:08:55;6.96;83.70
68439;SHT31;55421;51.600;5.718;2023-01-16T17:11:22;6.96;83.69
68439;SHT31;55421;51.600;5.718;2023-01-16T17:13:49;6.94;83.60
68439;SHT31;55421;51.600;5.718;2023-01-16T17:16:25;6.90;83.60
68439;SHT31;55421;51.600;5.718;2023-01-16T17:19:36;6.88;83.60
68439;SHT31;55421;51.600;5.718;2023-01-16T17:21:46;6.90;83.60
68439;SHT31;55421;51.600;5.718;2023-01-16T17:24:16;6.90;83.63
68439;SHT31;55421;51.600;5.718;2023-01-16T17:26:45;6.90;83.60
68439;SHT31;55421;51.600;5.718;2023-01-16T17:29:12;6.87;83.66
68439;SHT31;55421;51.600;5.718;2023-01-16T17:31:42;6.84;83.62
68439;SHT31;55421;51.600;5.718;2023-01-16T17:34:14;6.80;83.70
68439;SHT31;55421;51.600;5.718;2023-01-16T17:36:43;6.74;83.72
68439;SHT31;55421;51.600;5.718;2023-01-16T17:39:09;6.70;83.80
68439;SHT31;55421;51.600;5.718;2023-01-16T17:41:37;6.68;83.89
68439;SHT31;55421;51.600;5.718;2023-01-16T17:44:14;6.68;83.96
68439;SHT31;55421;51.600;5.718;2023-01-16T17:47:02;6.70;83.99
68439;SHT31;55421;51.600;5.718;2023-01-16T17:49:29;6.69;84.04
68439;SHT31;55421;51.600;5.718;2023-01-16T17:51:57;6.66;84.10
68439;SHT31;55421;51.600;5.718;2023-01-16T17:54:24;6.62;84.10
68439;SHT31;55421;51.600;5.718;2023-01-16T17:57:20;6.57;84.20
68439;SHT31;55421;51.600;5.718;2023-01-16T17:59:46;6.51;84.25
68439;SHT31;55421;51.600;5.718;2023-01-16T18:02:12;6.49;84.30
68439;SHT31;55421;51.600;5.718;2023-01-16T18:04:39;6.50;84.32
68439;SHT31;55421;51.600;5.718;2023-01-16T18:07:06;6.52;84.40
68439;SHT31;55421;51.600;5.718;2023-01-16T18:09:33;6.51;84.46
68439;SHT31;55421;51.600;5.718;2023-01-16T18:11:59;6.49;84.54
68439;SHT31;55421;51.600;5.718;2023-01-16T18:14:44;6.42;84.60
68439;SHT31;55421;51.600;5.718;2023-01-16T18:17:29;6.35;84.60
68439;SHT31;55421;51.600;5.718;2023-01-16T18:19:56;6.31;84.60
68439;SHT31;55421;51.600;5.718;2023-01-16T18:22:27;6.30;84.60
68439;SHT31;55421;51.600;5.718;2023-01-16T18:25:00;6.27;84.58
68439;SHT31;55421;51.600;5.718;2023-01-16T18:27:28;6.20;84.40
68439;SHT31;55421;51.600;5.718;2023-01-16T18:29:54;6.11;84.30
68439;SHT31;55421;51.600;5.718;2023-01-16T18:32:21;6.04;84.42
68439;SHT31;55421;51.600;5.718;2023-01-16T18:35:00;6.01;84.50
68439;SHT31;55421;51.600;5.718;2023-01-16T18:37:39;6.00;84.47
68439;SHT31;55421;51.600;5.718;2023-01-16T18:40:11;5.96;84.32
68439;SHT31;55421;51.600;5.718;2023-01-16T18:42:58;5.87;84.30
68439;SHT31;55421;51.600;5.718;2023-01-16T18:45:45;5.76;84.05
68439;SHT31;55421;51.600;5.718;2023-01-16T18:48:30;5.66;84.02
68439;SHT31;55421;51.600;5.718;2023-01-16T18:51:16;5.61;84.01
68439;SHT31;55421;51.600;5.718;2023-01-16T18:54:22;5.57;84.09
68439;SHT31;55421;51.600;5.718;2023-01-16T18:57:09;5.49;84.03
68439;SHT31;55421;51.600;5.718;2023-01-16T18:59:58;5.44;84.08
68439;SHT31;55421;51.600;5.718;2023-01-16T19:05:17;5.40;84.22
68439;SHT31;55421;51.600;5.718;2023-01-16T19:07:48;5.39;84.30